sensor_id;sensor_type;location;lat;lon;timestamp;P1;durP1;ratioP1;P2;durP2;ratioP2
59458;SDS011;45269;43.568;22.244;2023-02-18T00:01:27;54.95;;;42.58;;
59458;SDS011;45269;43.568;22.244;2023-02-18T00:03:56;50.58;;;36.95;;
59458;SDS011;45269;43.568;22.244;2023-02-18T00:06:26;40.22;;;29.90;;
59458;SDS011;45269;43.568;22.244;2023-02-18T00:08:52;82.05;;;60.08;;
59458;SDS011;45269;43.568;22.244;2023-02-18T00:11:18;68.00;;;48.15;;
59458;SDS011;45269;43.568;22.244;2023-02-18T00:13:48;47.33;;;35.40;;
59458;SDS011;45269;43.568;22.244;2023-02-18T00:18:38;38.33;;;27.65;;
59458;SDS011;45269;43.568;22.244;2023-02-18T00:21:04;32.20;;;25.30;;
59458;SDS011;45269;43.568;22.244;2023-02-18T00:23:30;138.50;;;100.75;;
59458;SDS011;45269;43.568;22.244;2023-02-18T00:26:02;123.93;;;87.90;;
59458;SDS011;45269;43.568;22.244;2023-02-18T00:28:28;148.27;;;103.05;;
59458;SDS011;45269;43.568;22.244;2023-02-18T00:30:53;159.38;;;115.25;;
59458;SDS011;45269;43.568;22.244;2023-02-18T00:33:18;139.38;;;98.60;;
59458;SDS011;45269;43.568;22.244;2023-02-18T00:35:44;180.35;;;128.93;;
59458;SDS011;45269;43.568;22.244;2023-02-18T00:38:09;146.20;;;104.15;;
59458;SDS011;45269;43.568;22.244;2023-02-18T00:40:37;64.15;;;48.33;;
59458;SDS011;45269;43.568;22.244;2023-02-18T00:43:03;108.72;;;77.10;;
59458;SDS011;45269;43.568;22.244;2023-02-18T00:45:28;90.53;;;64.88;;
59458;SDS011;45269;43.568;22.244;2023-02-18T00:47:53;46.45;;;34.90;;
59458;SDS011;45269;43.568;22.244;2023-02-18T00:50:19;42.67;;;32.20;;
59458;SDS011;45269;43.568;22.244;2023-02-18T00:52:44;39.67;;;31.60;;
59458;SDS011;45269;43.568;22.244;2023-02-18T00:55:09;32.65;;;25.95;;
59458;SDS011;45269;43.568;22.244;2023-02-18T00:57:35;28.23;;;23.75;;
59458;SDS011;45269;43.568;22.244;2023-02-18T01:00:00;27.35;;;23.05;;
59458;SDS011;45269;43.568;22.244;2023-02-18T01:02:25;28.77;;;23.85;;
59458;SDS011;45269;43.568;22.244;2023-02-18T01:04:50;32.17;;;25.17;;
59458;SDS011;45269;43.568;22.244;2023-02-18T01:07:16;40.95;;;32.53;;
59458;SDS011;45269;43.568;22.244;2023-02-18T01:09:41;33.35;;;26.88;;
59458;SDS011;45269;43.568;22.244;2023-02-18T01:12:06;35.08;;;28.38;;
59458;SDS011;45269;43.568;22.244;2023-02-18T01:14:32;42.28;;;31.05;;
59458;SDS011;45269;43.568;22.244;2023-02-18T01:16:57;41.60;;;31.20;;
59458;SDS011;45269;43.568;22.244;2023-02-18T01:19:22;41.78;;;33.15;;
59458;SDS011;45269;43.568;22.244;2023-02-18T01:21:47;41.17;;;31.50;;
59458;SDS011;45269;43.568;22.244;2023-02-18T01:24:13;39.15;;;29.08;;
59458;SDS011;45269;43.568;22.244;2023-02-18T01:26:38;44.78;;;31.42;;
59458;SDS011;45269;43.568;22.244;2023-02-18T01:29:03;42.28;;;32.38;;
59458;SDS011;45269;43.568;22.244;2023-02-18T01:31:29;105.28;;;69.22;;
59458;SDS011;45269;43.568;22.244;2023-02-18T01:33:54;87.03;;;58.90;;
59458;SDS011;45269;43.568;22.244;2023-02-18T01:36:19;76.85;;;52.97;;
59458;SDS011;45269;43.568;22.244;2023-02-18T01:38:44;61.63;;;44.30;;
59458;SDS011;45269;43.568;22.244;2023-02-18T01:41:10;62.58;;;44.90;;
59458;SDS011;45269;43.568;22.244;2023-02-18T01:43:35;78.22;;;56.47;;
59458;SDS011;45269;43.568;22.244;2023-02-18T01:48:40;53.72;;;39.28;;
59458;SDS011;45269;43.568;22.244;2023-02-18T01:51:40;26.52;;;19.92;;
59458;SDS011;45269;43.568;22.244;2023-02-18T01:53:59;61.88;;;46.10;;
59458;SDS011;45269;43.568;22.244;2023-02-18T01:56:37;38.57;;;28.07;;
59458;SDS011;45269;43.568;22.244;2023-02-18T01:59:05;56.67;;;42.90;;
59458;SDS011;45269;43.568;22.244;2023-02-18T02:01:31;44.55;;;34.15;;
59458;SDS011;45269;43.568;22.244;2023-02-18T02:03:56;37.65;;;28.83;;
59458;SDS011;45269;43.568;22.244;2023-02-18T02:06:22;29.63;;;21.25;;
59458;SDS011;45269;43.568;22.244;2023-02-18T02:08:48;27.33;;;20.38;;
59458;SDS011;45269;43.568;22.244;2023-02-18T02:11:22;26.38;;;20.33;;
59458;SDS011;45269;43.568;22.244;2023-02-18T02:14:05;26.45;;;20.35;;
59458;SDS011;45269;43.568;22.244;2023-02-18T02:21:46;31.23;;;23.35;;
59458;SDS011;45269;43.568;22.244;2023-02-18T02:24:28;28.25;;;22.45;;
59458;SDS011;45269;43.568;22.244;2023-02-18T02:26:59;47.90;;;34.72;;
59458;SDS011;45269;43.568;22.244;2023-02-18T02:32:31;36.67;;;28.45;;
59458;SDS011;45269;43.568;22.244;2023-02-18T02:37:41;136.25;;;77.45;;
59458;SDS011;45269;43.568;22.244;2023-02-18T02:40:27;137.55;;;73.80;;
59458;SDS011;45269;43.568;22.244;2023-02-18T02:53:02;82.72;;;57.75;;
59458;SDS011;45269;43.568;22.244;2023-02-18T02:55:30;85.72;;;62.90;;
59458;SDS011;45269;43.568;22.244;2023-02-18T02:57:55;92.60;;;69.55;;
59458;SDS011;45269;43.568;22.244;2023-02-18T03:00:28;56.88;;;42.60;;
59458;SDS011;45269;43.568;22.244;2023-02-18T03:16:12;45.17;;;32.72;;
59458;SDS011;45269;43.568;22.244;2023-02-18T03:18:50;35.40;;;27.08;;
59458;SDS011;45269;43.568;22.244;2023-02-18T03:21:25;36.40;;;27.45;;
59458;SDS011;45269;43.568;22.244;2023-02-18T03:26:28;37.50;;;27.42;;
59458;SDS011;45269;43.568;22.244;2023-02-18T03:28:54;34.88;;;26.17;;
59458;SDS011;45269;43.568;22.244;2023-02-18T03:31:20;33.75;;;25.25;;
59458;SDS011;45269;43.568;22.244;2023-02-18T03:33:51;22.95;;;18.02;;
59458;SDS011;45269;43.568;22.244;2023-02-18T03:36:18;21.75;;;16.25;;
59458;SDS011;45269;43.568;22.244;2023-02-18T03:38:50;19.75;;;15.18;;
59458;SDS011;45269;43.568;22.244;2023-02-18T03:41:17;18.98;;;15.88;;
59458;SDS011;45269;43.568;22.244;2023-02-18T03:43:59;21.13;;;17.25;;
59458;SDS011;45269;43.568;22.244;2023-02-18T03:46:28;21.75;;;17.63;;
59458;SDS011;45269;43.568;22.244;2023-02-18T03:48:54;22.42;;;17.20;;
59458;SDS011;45269;43.568;22.244;2023-02-18T03:51:19;19.73;;;16.67;;
59458;SDS011;45269;43.568;22.244;2023-02-18T03:53:44;27.05;;;19.13;;
59458;SDS011;45269;43.568;22.244;2023-02-18T03:56:10;22.27;;;18.75;;
59458;SDS011;45269;43.568;22.244;2023-02-18T03:58:35;30.33;;;23.45;;
59458;SDS011;45269;43.568;22.244;2023-02-18T04:01:01;26.77;;;19.23;;
59458;SDS011;45269;43.568;22.244;2023-02-18T04:03:26;22.38;;;17.42;;
59458;SDS011;45269;43.568;22.244;2023-02-18T04:05:51;21.90;;;17.90;;
59458;SDS011;45269;43.568;22.244;2023-02-18T04:08:16;23.13;;;18.92;;
59458;SDS011;45269;43.568;22.244;2023-02-18T04:10:42;24.80;;;19.25;;
59458;SDS011;45269;43.568;22.244;2023-02-18T04:13:07;25.52;;;20.23;;
59458;SDS011;45269;43.568;22.244;2023-02-18T04:15:33;21.98;;;19.27;;
59458;SDS011;45269;43.568;22.244;2023-02-18T04:17:59;26.90;;;19.83;;
59458;SDS011;45269;43.568;22.244;2023-02-18T04:20:24;33.10;;;24.20;;
59458;SDS011;45269;43.568;22.244;2023-02-18T04:22:49;31.00;;;25.80;;
59458;SDS011;45269;43.568;22.244;2023-02-18T04:25:15;16.58;;;13.43;;
59458;SDS011;45269;43.568;22.244;2023-02-18T04:27:40;50.70;;;40.08;;
59458;SDS011;45269;43.568;22.244;2023-02-18T04:30:05;39.10;;;30.77;;
59458;SDS011;45269;43.568;22.244;2023-02-18T04:32:31;38.63;;;27.67;;
59458;SDS011;45269;43.568;22.244;2023-02-18T04:34:56;92.75;;;71.15;;
59458;SDS011;45269;43.568;22.244;2023-02-18T04:37:21;49.53;;;38.20;;
59458;SDS011;45269;43.568;22.244;2023-02-18T04:39:47;34.65;;;25.85;;
59458;SDS011;45269;43.568;22.244;2023-02-18T04:42:12;41.58;;;33.00;;
59458;SDS011;45269;43.568;22.244;2023-02-18T04:44:37;48.92;;;32.30;;
59458;SDS011;45269;43.568;22.244;2023-02-18T04:47:04;31.48;;;23.13;;
59458;SDS011;45269;43.568;22.244;2023-02-18T04:49:29;42.35;;;30.38;;
59458;SDS011;45269;43.568;22.244;2023-02-18T04:51:55;25.60;;;21.02;;
59458;SDS011;45269;43.568;22.244;2023-02-18T04:54:20;36.03;;;27.52;;
59458;SDS011;45269;43.568;22.244;2023-02-18T04:56:45;36.10;;;26.67;;
59458;SDS011;45269;43.568;22.244;2023-02-18T04:59:10;41.38;;;33.85;;
59458;SDS011;45269;43.568;22.244;2023-02-18T05:01:36;44.63;;;35.35;;
59458;SDS011;45269;43.568;22.244;2023-02-18T05:04:01;29.38;;;23.65;;
59458;SDS011;45269;43.568;22.244;2023-02-18T05:06:26;27.08;;;21.05;;
59458;SDS011;45269;43.568;22.244;2023-02-18T05:08:52;33.30;;;21.67;;
59458;SDS011;45269;43.568;22.244;2023-02-18T05:11:17;24.65;;;19.73;;
59458;SDS011;45269;43.568;22.244;2023-02-18T05:13:42;19.33;;;15.18;;
59458;SDS011;45269;43.568;22.244;2023-02-18T05:16:07;21.63;;;16.45;;
59458;SDS011;45269;43.568;22.244;2023-02-18T05:18:33;29.70;;;20.98;;
59458;SDS011;45269;43.568;22.244;2023-02-18T05:20:58;30.15;;;20.02;;
59458;SDS011;45269;43.568;22.244;2023-02-18T05:23:24;23.08;;;18.38;;
59458;SDS011;45269;43.568;22.244;2023-02-18T05:25:50;26.92;;;21.65;;
59458;SDS011;45269;43.568;22.244;2023-02-18T05:28:15;24.95;;;19.85;;
59458;SDS011;45269;43.568;22.244;2023-02-18T05:30:40;36.70;;;27.00;;
59458;SDS011;45269;43.568;22.244;2023-02-18T05:33:06;32.15;;;25.05;;
59458;SDS011;45269;43.568;22.244;2023-02-18T05:35:31;25.52;;;21.65;;
59458;SDS011;45269;43.568;22.244;2023-02-18T05:37:56;26.42;;;22.13;;
59458;SDS011;45269;43.568;22.244;2023-02-18T05:40:22;29.50;;;24.58;;
59458;SDS011;45269;43.568;22.244;2023-02-18T05:42:47;30.60;;;26.25;;
59458;SDS011;45269;43.568;22.244;2023-02-18T05:45:12;43.65;;;34.22;;
59458;SDS011;45269;43.568;22.244;2023-02-18T05:47:38;55.70;;;49.00;;
59458;SDS011;45269;43.568;22.244;2023-02-18T05:50:04;52.45;;;46.70;;
59458;SDS011;45269;43.568;22.244;2023-02-18T05:52:29;46.10;;;36.88;;
59458;SDS011;45269;43.568;22.244;2023-02-18T05:54:55;91.00;;;77.18;;
59458;SDS011;45269;43.568;22.244;2023-02-18T05:57:20;32.08;;;27.08;;
59458;SDS011;45269;43.568;22.244;2023-02-18T05:59:45;29.35;;;24.45;;
59458;SDS011;45269;43.568;22.244;2023-02-18T06:02:11;27.30;;;21.02;;
59458;SDS011;45269;43.568;22.244;2023-02-18T06:04:36;25.73;;;20.77;;
59458;SDS011;45269;43.568;22.244;2023-02-18T06:07:01;28.73;;;22.02;;
59458;SDS011;45269;43.568;22.244;2023-02-18T06:09:27;35.42;;;30.73;;
59458;SDS011;45269;43.568;22.244;2023-02-18T06:11:52;34.33;;;26.98;;
59458;SDS011;45269;43.568;22.244;2023-02-18T06:14:17;27.75;;;23.50;;
59458;SDS011;45269;43.568;22.244;2023-02-18T06:16:43;32.45;;;25.13;;
59458;SDS011;45269;43.568;22.244;2023-02-18T06:19:08;34.03;;;26.13;;
59458;SDS011;45269;43.568;22.244;2023-02-18T06:21:33;44.35;;;33.85;;
59458;SDS011;45269;43.568;22.244;2023-02-18T06:23:59;37.60;;;30.27;;
59458;SDS011;45269;43.568;22.244;2023-02-18T06:26:25;30.08;;;26.35;;
59458;SDS011;45269;43.568;22.244;2023-02-18T06:28:50;28.33;;;23.25;;
59458;SDS011;45269;43.568;22.244;2023-02-18T06:31:16;34.38;;;23.70;;
59458;SDS011;45269;43.568;22.244;2023-02-18T06:33:41;86.40;;;56.38;;
59458;SDS011;45269;43.568;22.244;2023-02-18T06:36:07;46.75;;;32.13;;
59458;SDS011;45269;43.568;22.244;2023-02-18T06:38:35;88.88;;;57.95;;
59458;SDS011;45269;43.568;22.244;2023-02-18T06:41:01;52.58;;;35.58;;
59458;SDS011;45269;43.568;22.244;2023-02-18T06:43:27;250.55;;;161.95;;
59458;SDS011;45269;43.568;22.244;2023-02-18T06:45:52;166.15;;;105.85;;
59458;SDS011;45269;43.568;22.244;2023-02-18T06:48:17;145.68;;;88.53;;
59458;SDS011;45269;43.568;22.244;2023-02-18T06:50:43;195.95;;;128.55;;
59458;SDS011;45269;43.568;22.244;2023-02-18T06:53:08;148.10;;;100.90;;
59458;SDS011;45269;43.568;22.244;2023-02-18T06:55:33;130.85;;;92.40;;
59458;SDS011;45269;43.568;22.244;2023-02-18T06:57:59;83.97;;;63.10;;
59458;SDS011;45269;43.568;22.244;2023-02-18T07:00:24;111.22;;;66.93;;
59458;SDS011;45269;43.568;22.244;2023-02-18T07:02:49;231.15;;;131.27;;
59458;SDS011;45269;43.568;22.244;2023-02-18T07:05:15;262.40;;;149.27;;
59458;SDS011;45269;43.568;22.244;2023-02-18T07:07:40;388.48;;;232.77;;
59458;SDS011;45269;43.568;22.244;2023-02-18T07:10:06;118.72;;;87.43;;
59458;SDS011;45269;43.568;22.244;2023-02-18T07:12:31;52.30;;;38.35;;
59458;SDS011;45269;43.568;22.244;2023-02-18T07:14:57;84.97;;;63.03;;
59458;SDS011;45269;43.568;22.244;2023-02-18T07:17:22;31.00;;;24.10;;
59458;SDS011;45269;43.568;22.244;2023-02-18T07:19:47;44.22;;;36.30;;
59458;SDS011;45269;43.568;22.244;2023-02-18T07:22:13;77.50;;;60.22;;
59458;SDS011;45269;43.568;22.244;2023-02-18T07:24:38;57.58;;;44.92;;
59458;SDS011;45269;43.568;22.244;2023-02-18T07:27:03;285.08;;;197.82;;
59458;SDS011;45269;43.568;22.244;2023-02-18T07:29:29;192.63;;;130.77;;
59458;SDS011;45269;43.568;22.244;2023-02-18T07:31:54;293.48;;;199.18;;
59458;SDS011;45269;43.568;22.244;2023-02-18T07:34:20;127.40;;;87.68;;
59458;SDS011;45269;43.568;22.244;2023-02-18T07:36:45;98.55;;;70.53;;
59458;SDS011;45269;43.568;22.244;2023-02-18T07:39:11;122.70;;;102.38;;
59458;SDS011;45269;43.568;22.244;2023-02-18T07:41:36;40.60;;;34.08;;
59458;SDS011;45269;43.568;22.244;2023-02-18T07:44:01;19.65;;;16.13;;
59458;SDS011;45269;43.568;22.244;2023-02-18T07:46:27;19.13;;;14.70;;
59458;SDS011;45269;43.568;22.244;2023-02-18T07:48:52;21.25;;;17.55;;
59458;SDS011;45269;43.568;22.244;2023-02-18T07:51:17;20.98;;;14.73;;
59458;SDS011;45269;43.568;22.244;2023-02-18T07:53:44;26.15;;;17.88;;
59458;SDS011;45269;43.568;22.244;2023-02-18T07:56:09;19.10;;;15.85;;
59458;SDS011;45269;43.568;22.244;2023-02-18T07:58:36;34.13;;;26.35;;
59458;SDS011;45269;43.568;22.244;2023-02-18T08:01:06;39.88;;;31.58;;
59458;SDS011;45269;43.568;22.244;2023-02-18T08:03:31;112.65;;;56.35;;
59458;SDS011;45269;43.568;22.244;2023-02-18T08:05:59;22.35;;;17.48;;
59458;SDS011;45269;43.568;22.244;2023-02-18T08:08:26;109.38;;;79.13;;
59458;SDS011;45269;43.568;22.244;2023-02-18T08:10:52;24.92;;;22.23;;
59458;SDS011;45269;43.568;22.244;2023-02-18T08:13:18;16.65;;;10.48;;
59458;SDS011;45269;43.568;22.244;2023-02-18T08:15:44;12.32;;;9.88;;
59458;SDS011;45269;43.568;22.244;2023-02-18T08:18:19;16.52;;;10.50;;
59458;SDS011;45269;43.568;22.244;2023-02-18T08:20:44;13.15;;;9.02;;
59458;SDS011;45269;43.568;22.244;2023-02-18T08:23:11;12.52;;;8.70;;
59458;SDS011;45269;43.568;22.244;2023-02-18T08:25:37;13.05;;;9.38;;
59458;SDS011;45269;43.568;22.244;2023-02-18T08:28:03;19.33;;;10.52;;
59458;SDS011;45269;43.568;22.244;2023-02-18T08:30:28;16.55;;;10.93;;
59458;SDS011;45269;43.568;22.244;2023-02-18T08:32:53;11.77;;;10.00;;
59458;SDS011;45269;43.568;22.244;2023-02-18T08:35:19;16.45;;;10.00;;
59458;SDS011;45269;43.568;22.244;2023-02-18T08:37:44;12.38;;;10.43;;
59458;SDS011;45269;43.568;22.244;2023-02-18T08:40:10;15.52;;;11.68;;
59458;SDS011;45269;43.568;22.244;2023-02-18T08:42:35;25.73;;;13.18;;
59458;SDS011;45269;43.568;22.244;2023-02-18T08:45:00;17.35;;;13.65;;
59458;SDS011;45269;43.568;22.244;2023-02-18T08:47:26;13.75;;;12.30;;
59458;SDS011;45269;43.568;22.244;2023-02-18T08:49:52;17.25;;;15.45;;
59458;SDS011;45269;43.568;22.244;2023-02-18T08:52:17;14.55;;;12.98;;
59458;SDS011;45269;43.568;22.244;2023-02-18T08:54:43;11.70;;;10.45;;
59458;SDS011;45269;43.568;22.244;2023-02-18T08:57:08;13.57;;;9.55;;
59458;SDS011;45269;43.568;22.244;2023-02-18T08:59:33;13.85;;;9.63;;
59458;SDS011;45269;43.568;22.244;2023-02-18T09:01:58;11.15;;;8.93;;
59458;SDS011;45269;43.568;22.244;2023-02-18T09:04:24;10.25;;;9.10;;
59458;SDS011;45269;43.568;22.244;2023-02-18T09:06:49;11.20;;;8.50;;
59458;SDS011;45269;43.568;22.244;2023-02-18T09:09:15;10.05;;;8.20;;
59458;SDS011;45269;43.568;22.244;2023-02-18T09:11:41;13.60;;;8.18;;
59458;SDS011;45269;43.568;22.244;2023-02-18T09:14:06;12.85;;;10.50;;
59458;SDS011;45269;43.568;22.244;2023-02-18T09:16:32;19.13;;;12.05;;
59458;SDS011;45269;43.568;22.244;2023-02-18T09:18:57;16.63;;;12.63;;
59458;SDS011;45269;43.568;22.244;2023-02-18T09:21:23;14.95;;;11.15;;
59458;SDS011;45269;43.568;22.244;2023-02-18T09:23:48;25.27;;;18.00;;
59458;SDS011;45269;43.568;22.244;2023-02-18T09:26:15;17.42;;;12.45;;
59458;SDS011;45269;43.568;22.244;2023-02-18T09:28:40;10.93;;;9.65;;
59458;SDS011;45269;43.568;22.244;2023-02-18T09:31:07;39.20;;;22.40;;
59458;SDS011;45269;43.568;22.244;2023-02-18T09:33:40;24.65;;;17.38;;
59458;SDS011;45269;43.568;22.244;2023-02-18T09:36:05;19.63;;;15.45;;
59458;SDS011;45269;43.568;22.244;2023-02-18T09:38:31;15.93;;;13.93;;
59458;SDS011;45269;43.568;22.244;2023-02-18T09:40:56;14.18;;;12.32;;
59458;SDS011;45269;43.568;22.244;2023-02-18T09:43:44;15.02;;;12.85;;
59458;SDS011;45269;43.568;22.244;2023-02-18T09:46:51;19.17;;;14.60;;
59458;SDS011;45269;43.568;22.244;2023-02-18T09:48:59;19.38;;;13.90;;
59458;SDS011;45269;43.568;22.244;2023-02-18T09:51:25;15.35;;;10.60;;
59458;SDS011;45269;43.568;22.244;2023-02-18T09:53:51;19.70;;;13.70;;
59458;SDS011;45269;43.568;22.244;2023-02-18T09:56:20;14.35;;;9.70;;
59458;SDS011;45269;43.568;22.244;2023-02-18T09:58:46;21.60;;;12.38;;
59458;SDS011;45269;43.568;22.244;2023-02-18T10:01:32;21.48;;;18.33;;
59458;SDS011;45269;43.568;22.244;2023-02-18T10:04:01;38.90;;;30.17;;
59458;SDS011;45269;43.568;22.244;2023-02-18T10:06:31;18.48;;;14.98;;
59458;SDS011;45269;43.568;22.244;2023-02-18T10:08:58;17.30;;;14.15;;
59458;SDS011;45269;43.568;22.244;2023-02-18T10:11:30;15.95;;;14.27;;
59458;SDS011;45269;43.568;22.244;2023-02-18T10:13:55;12.80;;;11.13;;
59458;SDS011;45269;43.568;22.244;2023-02-18T10:16:22;15.20;;;9.25;;
59458;SDS011;45269;43.568;22.244;2023-02-18T10:18:49;12.05;;;10.60;;
59458;SDS011;45269;43.568;22.244;2023-02-18T10:21:15;9.18;;;7.50;;
59458;SDS011;45269;43.568;22.244;2023-02-18T10:26:28;10.32;;;7.85;;
59458;SDS011;45269;43.568;22.244;2023-02-18T10:28:54;11.18;;;8.73;;
59458;SDS011;45269;43.568;22.244;2023-02-18T10:31:24;11.27;;;9.90;;
59458;SDS011;45269;43.568;22.244;2023-02-18T10:33:58;9.40;;;8.30;;
59458;SDS011;45269;43.568;22.244;2023-02-18T10:36:25;11.25;;;8.43;;
59458;SDS011;45269;43.568;22.244;2023-02-18T10:44:16;11.98;;;9.52;;
59458;SDS011;45269;43.568;22.244;2023-02-18T10:51:50;13.77;;;9.82;;
59458;SDS011;45269;43.568;22.244;2023-02-18T10:54:17;23.48;;;11.32;;
59458;SDS011;45269;43.568;22.244;2023-02-18T10:56:48;14.63;;;11.48;;
59458;SDS011;45269;43.568;22.244;2023-02-18T10:59:24;12.95;;;10.60;;
59458;SDS011;45269;43.568;22.244;2023-02-18T11:02:00;11.88;;;8.85;;
59458;SDS011;45269;43.568;22.244;2023-02-18T11:04:36;14.98;;;9.25;;
59458;SDS011;45269;43.568;22.244;2023-02-18T11:07:04;14.85;;;11.13;;
59458;SDS011;45269;43.568;22.244;2023-02-18T11:09:38;11.18;;;8.88;;
59458;SDS011;45269;43.568;22.244;2023-02-18T11:12:05;18.08;;;13.80;;
59458;SDS011;45269;43.568;22.244;2023-02-18T11:14:38;12.23;;;10.73;;
59458;SDS011;45269;43.568;22.244;2023-02-18T11:17:15;13.00;;;9.20;;
59458;SDS011;45269;43.568;22.244;2023-02-18T11:19:41;15.18;;;9.27;;
59458;SDS011;45269;43.568;22.244;2023-02-18T11:22:14;16.25;;;7.55;;
59458;SDS011;45269;43.568;22.244;2023-02-18T11:24:40;10.32;;;8.30;;
59458;SDS011;45269;43.568;22.244;2023-02-18T11:27:14;9.75;;;8.75;;
59458;SDS011;45269;43.568;22.244;2023-02-18T11:29:42;26.77;;;17.90;;
59458;SDS011;45269;43.568;22.244;2023-02-18T11:32:09;36.67;;;28.10;;
59458;SDS011;45269;43.568;22.244;2023-02-18T11:34:35;10.80;;;8.68;;
59458;SDS011;45269;43.568;22.244;2023-02-18T11:37:08;22.73;;;17.65;;
59458;SDS011;45269;43.568;22.244;2023-02-18T11:39:34;15.05;;;12.63;;
59458;SDS011;45269;43.568;22.244;2023-02-18T11:42:01;18.70;;;12.18;;
59458;SDS011;45269;43.568;22.244;2023-02-18T11:44:37;10.07;;;9.07;;
59458;SDS011;45269;43.568;22.244;2023-02-18T11:49:29;9.25;;;8.32;;
59458;SDS011;45269;43.568;22.244;2023-02-18T11:52:02;9.73;;;7.90;;
59458;SDS011;45269;43.568;22.244;2023-02-18T11:54:28;11.10;;;8.57;;
59458;SDS011;45269;43.568;22.244;2023-02-18T11:56:56;17.40;;;11.13;;
59458;SDS011;45269;43.568;22.244;2023-02-18T11:59:22;19.95;;;14.45;;
59458;SDS011;45269;43.568;22.244;2023-02-18T12:01:59;14.48;;;9.70;;
59458;SDS011;45269;43.568;22.244;2023-02-18T12:04:28;38.90;;;23.02;;
59458;SDS011;45269;43.568;22.244;2023-02-18T12:06:57;10.82;;;8.85;;
59458;SDS011;45269;43.568;22.244;2023-02-18T12:11:58;16.83;;;12.43;;
59458;SDS011;45269;43.568;22.244;2023-02-18T12:14:25;21.42;;;16.27;;
59458;SDS011;45269;43.568;22.244;2023-02-18T12:25:08;20.67;;;15.32;;
59458;SDS011;45269;43.568;22.244;2023-02-18T12:46:21;20.80;;;15.68;;
59458;SDS011;45269;43.568;22.244;2023-02-18T12:51:45;19.92;;;14.70;;
59458;SDS011;45269;43.568;22.244;2023-02-18T13:07:11;23.02;;;18.75;;
59458;SDS011;45269;43.568;22.244;2023-02-18T13:14:40;28.00;;;21.13;;
59458;SDS011;45269;43.568;22.244;2023-02-18T13:17:10;19.38;;;13.68;;
59458;SDS011;45269;43.568;22.244;2023-02-18T13:22:39;17.88;;;13.77;;
59458;SDS011;45269;43.568;22.244;2023-02-18T13:25:05;25.45;;;18.20;;
59458;SDS011;45269;43.568;22.244;2023-02-18T13:27:48;12.63;;;10.00;;
59458;SDS011;45269;43.568;22.244;2023-02-18T13:30:20;12.63;;;9.77;;
59458;SDS011;45269;43.568;22.244;2023-02-18T13:37:47;12.27;;;8.97;;
59458;SDS011;45269;43.568;22.244;2023-02-18T13:40:20;10.43;;;8.27;;
59458;SDS011;45269;43.568;22.244;2023-02-18T13:42:47;13.23;;;8.73;;
59458;SDS011;45269;43.568;22.244;2023-02-18T13:45:48;12.07;;;7.40;;
59458;SDS011;45269;43.568;22.244;2023-02-18T13:48:20;14.95;;;10.00;;
59458;SDS011;45269;43.568;22.244;2023-02-18T13:50:46;27.13;;;19.58;;
59458;SDS011;45269;43.568;22.244;2023-02-18T13:53:18;26.02;;;17.20;;
59458;SDS011;45269;43.568;22.244;2023-02-18T13:58:14;22.27;;;16.23;;
59458;SDS011;45269;43.568;22.244;2023-02-18T14:00:48;27.83;;;20.77;;
59458;SDS011;45269;43.568;22.244;2023-02-18T14:03:30;33.20;;;28.23;;
59458;SDS011;45269;43.568;22.244;2023-02-18T14:05:57;21.45;;;14.43;;
59458;SDS011;45269;43.568;22.244;2023-02-18T14:08:33;21.58;;;16.15;;
59458;SDS011;45269;43.568;22.244;2023-02-18T14:16:05;19.88;;;14.38;;
59458;SDS011;45269;43.568;22.244;2023-02-18T14:23:37;11.10;;;9.55;;
59458;SDS011;45269;43.568;22.244;2023-02-18T14:26:07;11.38;;;8.90;;
59458;SDS011;45269;43.568;22.244;2023-02-18T14:33:36;18.65;;;12.20;;
59458;SDS011;45269;43.568;22.244;2023-02-18T14:38:48;10.82;;;7.07;;
59458;SDS011;45269;43.568;22.244;2023-02-18T14:51:21;20.90;;;15.13;;
59458;SDS011;45269;43.568;22.244;2023-02-18T14:53:47;15.85;;;11.75;;
59458;SDS011;45269;43.568;22.244;2023-02-18T14:56:14;24.10;;;16.08;;
59458;SDS011;45269;43.568;22.244;2023-02-18T14:58:44;24.88;;;18.40;;
59458;SDS011;45269;43.568;22.244;2023-02-18T15:01:20;21.73;;;16.17;;
59458;SDS011;45269;43.568;22.244;2023-02-18T15:03:50;40.40;;;27.02;;
59458;SDS011;45269;43.568;22.244;2023-02-18T15:08:41;51.53;;;35.03;;
59458;SDS011;45269;43.568;22.244;2023-02-18T15:11:06;41.05;;;31.75;;
59458;SDS011;45269;43.568;22.244;2023-02-18T15:13:33;31.23;;;23.92;;
59458;SDS011;45269;43.568;22.244;2023-02-18T15:16:04;65.22;;;47.22;;
59458;SDS011;45269;43.568;22.244;2023-02-18T15:18:36;26.58;;;21.85;;
59458;SDS011;45269;43.568;22.244;2023-02-18T15:21:04;51.47;;;34.05;;
59458;SDS011;45269;43.568;22.244;2023-02-18T15:23:30;40.38;;;29.17;;
59458;SDS011;45269;43.568;22.244;2023-02-18T15:25:58;62.45;;;37.15;;
59458;SDS011;45269;43.568;22.244;2023-02-18T15:28:27;111.43;;;63.28;;
59458;SDS011;45269;43.568;22.244;2023-02-18T15:30:57;54.50;;;38.03;;
59458;SDS011;45269;43.568;22.244;2023-02-18T15:33:22;41.65;;;33.40;;
59458;SDS011;45269;43.568;22.244;2023-02-18T15:35:48;52.70;;;45.53;;
59458;SDS011;45269;43.568;22.244;2023-02-18T15:38:19;36.40;;;32.45;;
59458;SDS011;45269;43.568;22.244;2023-02-18T15:40:46;26.77;;;19.60;;
59458;SDS011;45269;43.568;22.244;2023-02-18T15:43:14;18.85;;;16.52;;
59458;SDS011;45269;43.568;22.244;2023-02-18T15:45:41;20.73;;;18.58;;
59458;SDS011;45269;43.568;22.244;2023-02-18T15:48:28;21.05;;;18.77;;
59458;SDS011;45269;43.568;22.244;2023-02-18T15:50:56;23.83;;;21.42;;
59458;SDS011;45269;43.568;22.244;2023-02-18T15:53:22;36.95;;;32.78;;
59458;SDS011;45269;43.568;22.244;2023-02-18T15:55:48;23.60;;;21.02;;
59458;SDS011;45269;43.568;22.244;2023-02-18T15:58:18;29.77;;;22.23;;
59458;SDS011;45269;43.568;22.244;2023-02-18T16:00:52;19.27;;;15.63;;
59458;SDS011;45269;43.568;22.244;2023-02-18T16:03:25;31.45;;;23.75;;
59458;SDS011;45269;43.568;22.244;2023-02-18T16:06:07;20.70;;;15.48;;
59458;SDS011;45269;43.568;22.244;2023-02-18T16:08:33;33.15;;;22.50;;
59458;SDS011;45269;43.568;22.244;2023-02-18T16:10:59;27.30;;;19.92;;
59458;SDS011;45269;43.568;22.244;2023-02-18T16:13:25;21.88;;;17.55;;
59458;SDS011;45269;43.568;22.244;2023-02-18T16:15:53;22.25;;;18.83;;
59458;SDS011;45269;43.568;22.244;2023-02-18T16:18:23;18.10;;;14.82;;
59458;SDS011;45269;43.568;22.244;2023-02-18T16:20:56;19.52;;;14.18;;
59458;SDS011;45269;43.568;22.244;2023-02-18T16:23:29;19.13;;;15.27;;
59458;SDS011;45269;43.568;22.244;2023-02-18T16:25:55;19.00;;;16.10;;
59458;SDS011;45269;43.568;22.244;2023-02-18T16:28:25;20.75;;;15.25;;
59458;SDS011;45269;43.568;22.244;2023-02-18T16:30:51;18.80;;;13.77;;
59458;SDS011;45269;43.568;22.244;2023-02-18T16:33:17;17.75;;;14.05;;
59458;SDS011;45269;43.568;22.244;2023-02-18T16:35:42;25.80;;;20.05;;
59458;SDS011;45269;43.568;22.244;2023-02-18T16:38:18;26.35;;;21.10;;
59458;SDS011;45269;43.568;22.244;2023-02-18T16:40:44;25.27;;;19.48;;